Time;durP1;ratioP1;P1;durP2;ratioP2;P2;SDS_P1;SDS_P2;PMS_P1;PMS_P2;Temp;Humidity;BMP_temperature;BMP_pressure;BME280_temperature;BME280_humidity;BME280_pressure;Samples;Min_cycle;Max_cycle;Signal;HPM_P1;HPM_P2
2020/12/22 00:01:28;;;;;;;28.03;26.63;;;;;;;;;;5116096;27;20473;-80
2020/12/22 00:03:55;;;;;;;28.67;27.17;;;;;;;;;;5134991;27;20487;-79
2020/12/22 00:06:23;;;;;;;28.60;27.10;;;;;;;;;;5116404;27;20195;-79
2020/12/22 00:08:50;;;;;;;26.30;25.10;;;;;;;;;;5134643;27;20665;-79
2020/12/22 00:11:18;;;;;;;27.37;25.77;;;;;;;;;;5134315;27;20456;-80
2020/12/22 00:13:45;;;;;;;30.07;28.33;;;;;;;;;;5134245;27;20478;-79
2020/12/22 00:16:11;;;;;;;30.80;29.35;;;;;;;;;;5134915;28;20424;-79
2020/12/22 00:18:38;;;;;;;28.93;27.50;;;;;;;;;;5134989;28;20187;-79
2020/12/22 00:21:05;;;;;;;28.92;27.45;;;;;;;;;;5134536;28;20435;-79
2020/12/22 00:23:33;;;;;;;28.00;26.60;;;;;;;;;;5134852;28;20194;-79
2020/12/22 00:26:01;;;;;;;29.65;28.25;;;;;;;;;;5134814;28;20420;-79
2020/12/22 00:28:28;;;;;;;28.17;26.60;;;;;;;;;;5134880;28;20193;-79
2020/12/22 00:30:54;;;;;;;28.13;26.40;;;;;;;;;;5134534;28;20493;-79
2020/12/22 00:33:22;;;;;;;26.47;25.17;;;;;;;;;;5134369;28;20942;-79
2020/12/22 00:35:48;;;;;;;26.97;25.57;;;;;;;;;;5134776;28;20449;-80
2020/12/22 00:38:15;;;;;;;28.77;27.27;;;;;;;;;;5134724;28;20416;-79
2020/12/22 00:40:43;;;;;;;28.23;26.83;;;;;;;;;;5134579;28;20219;-79
2020/12/22 00:43:10;;;;;;;27.90;26.60;;;;;;;;;;5134365;28;20471;-79
2020/12/22 00:45:37;;;;;;;26.50;25.30;;;;;;;;;;5134527;28;20483;-79
2020/12/22 00:48:03;;;;;;;26.23;24.97;;;;;;;;;;5134644;28;20848;-78
2020/12/22 00:50:30;;;;;;;28.43;26.83;;;;;;;;;;5134277;28;20481;-79
2020/12/22 00:52:57;;;;;;;28.30;26.90;;;;;;;;;;5134599;28;20420;-79
2020/12/22 00:55:24;;;;;;;29.70;28.20;;;;;;;;;;5134796;28;20441;-78
2020/12/22 00:57:52;;;;;;;30.67;29.27;;;;;;;;;;5116224;28;20434;-79
2020/12/22 01:00:21;;;;;;;28.30;27.00;;;;;;;;;;5134141;28;20776;-79
2020/12/22 01:02:48;;;;;;;28.37;27.07;;;;;;;;;;5133997;28;20435;-79
2020/12/22 01:05:14;;;;;;;28.67;27.23;;;;;;;;;;5134560;28;20413;-79
2020/12/22 01:07:41;;;;;;;30.67;29.27;;;;;;;;;;5134562;28;20412;-79
2020/12/22 01:10:08;;;;;;;31.37;29.97;;;;;;;;;;5134125;28;20784;-79
2020/12/22 01:12:35;;;;;;;32.60;31.20;;;;;;;;;;5134161;28;20453;-79
2020/12/22 01:15:03;;;;;;;32.37;30.97;;;;;;;;;;5134448;28;20401;-79
2020/12/22 01:17:30;;;;;;;31.08;29.67;;;;;;;;;;5116011;28;20906;-79
2020/12/22 01:19:57;;;;;;;31.50;30.10;;;;;;;;;;5134476;28;20275;-79
2020/12/22 01:22:24;;;;;;;32.53;31.03;;;;;;;;;;5135033;27;20409;-79
2020/12/22 01:24:51;;;;;;;30.13;28.80;;;;;;;;;;5138189;27;20413;-79
2020/12/22 01:27:17;;;;;;;30.10;28.70;;;;;;;;;;5138183;27;20438;-79
2020/12/22 01:29:44;;;;;;;30.80;29.20;;;;;;;;;;5138044;27;20474;-79
2020/12/22 01:32:12;;;;;;;29.97;28.57;;;;;;;;;;5137512;27;20470;-79
2020/12/22 01:34:39;;;;;;;30.50;29.10;;;;;;;;;;5138024;27;20409;-79
2020/12/22 01:37:11;;;;;;;29.53;28.23;;;;;;;;;;5138052;27;20846;-78
2020/12/22 01:39:38;;;;;;;29.70;28.30;;;;;;;;;;5137341;27;20428;-79
2020/12/22 01:42:07;;;;;;;32.57;30.50;;;;;;;;;;5137867;27;20442;-78
2020/12/22 01:44:34;;;;;;;34.10;32.50;;;;;;;;;;5137787;27;20434;-79
2020/12/22 01:47:00;;;;;;;32.17;30.57;;;;;;;;;;5137508;27;20920;-79
2020/12/22 01:49:28;;;;;;;31.67;30.17;;;;;;;;;;5137316;27;20889;-79
2020/12/22 01:51:56;;;;;;;32.30;30.80;;;;;;;;;;5137673;27;20448;-79
2020/12/22 01:54:25;;;;;;;31.93;30.53;;;;;;;;;;5119525;27;20442;-78
2020/12/22 01:56:51;;;;;;;32.40;30.90;;;;;;;;;;5119673;27;20413;-79
2020/12/22 01:59:18;;;;;;;31.60;30.20;;;;;;;;;;5137292;27;20409;-79
2020/12/22 02:01:46;;;;;;;31.50;29.90;;;;;;;;;;5136903;27;20474;-79
2020/12/22 02:04:13;;;;;;;32.57;31.00;;;;;;;;;;5137352;27;20447;-79
2020/12/22 02:06:40;;;;;;;33.80;32.20;;;;;;;;;;5137391;27;20437;-79
2020/12/22 02:09:08;;;;;;;35.10;33.40;;;;;;;;;;5137356;27;20494;-78
2020/12/22 02:11:36;;;;;;;34.97;33.37;;;;;;;;;;5137109;27;20457;-79
2020/12/22 02:14:04;;;;;;;36.30;34.40;;;;;;;;;;5136987;27;20453;-79
2020/12/22 02:16:31;;;;;;;36.20;34.40;;;;;;;;;;5136915;27;20444;-79
2020/12/22 02:18:58;;;;;;;34.43;32.63;;;;;;;;;;5136796;27;20409;-79
2020/12/22 02:21:26;;;;;;;33.83;32.13;;;;;;;;;;5137056;27;20789;-79
2020/12/22 02:23:53;;;;;;;35.10;33.30;;;;;;;;;;5137008;27;20410;-79
2020/12/22 02:26:20;;;;;;;34.37;32.57;;;;;;;;;;5137059;27;20420;-79
2020/12/22 02:28:47;;;;;;;35.90;34.10;;;;;;;;;;5136945;27;20530;-79
2020/12/22 02:31:14;;;;;;;35.73;33.80;;;;;;;;;;5136548;27;20497;-79
2020/12/22 02:33:41;;;;;;;38.27;36.37;;;;;;;;;;5136612;27;20436;-79
2020/12/22 02:36:11;;;;;;;39.33;37.23;;;;;;;;;;5118068;27;20442;-79
2020/12/22 02:38:39;;;;;;;38.60;36.60;;;;;;;;;;5136806;27;20413;-79
2020/12/22 02:41:06;;;;;;;36.10;34.30;;;;;;;;;;5136501;27;20458;-79
2020/12/22 02:43:33;;;;;;;38.83;36.77;;;;;;;;;;5136718;27;20890;-79
2020/12/22 02:46:02;;;;;;;33.73;32.13;;;;;;;;;;5136574;27;20417;-79
2020/12/22 02:48:29;;;;;;;35.43;33.63;;;;;;;;;;5136472;27;20438;-79
2020/12/22 02:50:56;;;;;;;34.03;32.33;;;;;;;;;;5136261;27;20968;-79
2020/12/22 02:53:23;;;;;;;33.53;31.83;;;;;;;;;;5136372;27;20504;-78
2020/12/22 02:55:50;;;;;;;35.33;33.53;;;;;;;;;;5135839;27;20466;-79
2020/12/22 02:58:17;;;;;;;35.10;33.23;;;;;;;;;;5136387;27;20416;-79
2020/12/22 03:00:44;;;;;;;36.33;34.43;;;;;;;;;;5135886;27;20412;-79
2020/12/22 03:03:11;;;;;;;35.80;34.00;;;;;;;;;;5136288;27;20406;-79
2020/12/22 03:05:38;;;;;;;35.20;33.50;;;;;;;;;;5135875;27;20899;-79
2020/12/22 03:08:05;;;;;;;35.43;33.60;;;;;;;;;;5135819;27;20430;-79
2020/12/22 03:10:32;;;;;;;33.30;31.80;;;;;;;;;;5136071;27;20452;-79
2020/12/22 03:13:00;;;;;;;34.03;32.23;;;;;;;;;;5135660;27;20795;-79
2020/12/22 03:15:27;;;;;;;36.07;34.33;;;;;;;;;;5117299;27;20429;-79
2020/12/22 03:17:54;;;;;;;33.63;31.93;;;;;;;;;;5136113;27;20438;-79
2020/12/22 03:20:21;;;;;;;33.10;31.50;;;;;;;;;;5135602;27;20912;-79
2020/12/22 03:22:47;;;;;;;34.63;32.97;;;;;;;;;;5135709;27;20486;-79
2020/12/22 03:25:14;;;;;;;32.27;30.77;;;;;;;;;;5136045;27;20422;-79
2020/12/22 03:27:41;;;;;;;35.07;33.47;;;;;;;;;;5135871;27;20417;-79
2020/12/22 03:30:10;;;;;;;32.77;31.27;;;;;;;;;;5117319;27;20925;-79
2020/12/22 03:32:37;;;;;;;33.30;31.73;;;;;;;;;;5135327;27;21035;-79
2020/12/22 03:35:04;;;;;;;35.43;33.50;;;;;;;;;;5136013;27;20817;-79
2020/12/22 03:37:31;;;;;;;32.73;31.23;;;;;;;;;;5117281;27;20428;-79
2020/12/22 03:40:00;;;;;;;32.60;31.00;;;;;;;;;;5135288;27;20934;-79
2020/12/22 03:42:27;;;;;;;33.20;31.60;;;;;;;;;;5135502;27;20498;-78
2020/12/22 03:44:54;;;;;;;32.13;30.53;;;;;;;;;;5135087;27;20977;-79
2020/12/22 03:47:22;;;;;;;33.60;31.90;;;;;;;;;;5135520;27;20491;-79
2020/12/22 03:49:49;;;;;;;31.23;29.73;;;;;;;;;;5117294;27;20462;-79
2020/12/22 03:52:16;;;;;;;33.23;31.70;;;;;;;;;;5134928;27;20744;-79
2020/12/22 03:54:43;;;;;;;34.37;32.63;;;;;;;;;;5135399;27;20435;-79
2020/12/22 03:57:10;;;;;;;33.70;32.10;;;;;;;;;;5135272;27;20775;-79
2020/12/22 03:59:37;;;;;;;33.27;31.67;;;;;;;;;;5135290;27;20426;-79
2020/12/22 04:02:04;;;;;;;35.10;33.40;;;;;;;;;;5116577;27;20922;-79
2020/12/22 04:04:33;;;;;;;33.37;31.67;;;;;;;;;;5135173;27;20752;-79
2020/12/22 04:06:59;;;;;;;35.77;34.03;;;;;;;;;;5135371;27;20450;-80
2020/12/22 04:09:26;;;;;;;32.77;31.17;;;;;;;;;;5116648;27;20417;-79
2020/12/22 04:11:53;;;;;;;33.17;31.37;;;;;;;;;;5134562;27;20482;-79
2020/12/22 04:14:20;;;;;;;35.00;33.10;;;;;;;;;;5116641;27;20482;-79
2020/12/22 04:16:48;;;;;;;35.77;33.87;;;;;;;;;;5134987;27;20942;-79
2020/12/22 04:19:15;;;;;;;36.00;34.00;;;;;;;;;;5134719;27;20433;-79
2020/12/22 04:21:43;;;;;;;32.70;31.10;;;;;;;;;;5135003;27;20879;-79
2020/12/22 04:24:10;;;;;;;33.90;32.13;;;;;;;;;;5134604;28;20425;-80
2020/12/22 04:26:36;;;;;;;34.40;32.57;;;;;;;;;;5134968;28;20414;-79
2020/12/22 04:29:03;;;;;;;37.80;35.80;;;;;;;;;;5134946;28;20413;-79
2020/12/22 04:31:30;;;;;;;36.63;34.43;;;;;;;;;;5134202;28;20550;-79
2020/12/22 04:33:58;;;;;;;37.67;35.47;;;;;;;;;;5134428;28;20863;-79
2020/12/22 04:36:25;;;;;;;37.70;35.60;;;;;;;;;;5134838;28;20401;-79
2020/12/22 04:38:53;;;;;;;39.23;37.03;;;;;;;;;;5134764;28;20944;-79
2020/12/22 04:41:21;;;;;;;37.40;35.50;;;;;;;;;;5134832;28;20416;-79
2020/12/22 04:43:49;;;;;;;37.20;35.20;;;;;;;;;;5134790;28;20405;-79
2020/12/22 04:46:17;;;;;;;35.20;33.10;;;;;;;;;;5134790;28;20413;-79
2020/12/22 04:48:46;;;;;;;36.57;34.60;;;;;;;;;;5134399;28;20430;-79
2020/12/22 04:51:13;;;;;;;37.63;35.33;;;;;;;;;;5134325;28;20482;-79
2020/12/22 04:53:40;;;;;;;35.37;33.57;;;;;;;;;;5134606;28;20441;-79
2020/12/22 04:56:08;;;;;;;35.83;33.93;;;;;;;;;;5135357;27;20775;-79
2020/12/22 04:58:36;;;;;;;36.70;34.77;;;;;;;;;;5138796;27;20409;-78
2020/12/22 05:01:03;;;;;;;35.73;33.73;;;;;;;;;;5138728;27;20409;-79
2020/12/22 05:03:30;;;;;;;37.70;35.70;;;;;;;;;;5138516;27;20898;-79
2020/12/22 05:05:57;;;;;;;36.63;34.63;;;;;;;;;;5138420;27;20416;-80
2020/12/22 05:08:24;;;;;;;38.20;36.13;;;;;;;;;;5138194;27;20817;-79
2020/12/22 05:10:52;;;;;;;36.20;34.30;;;;;;;;;;5138341;27;20444;-79
2020/12/22 05:13:20;;;;;;;35.60;33.60;;;;;;;;;;5137785;27;20487;-80
2020/12/22 05:15:49;;;;;;;36.03;34.13;;;;;;;;;;5138263;27;20430;-79
2020/12/22 05:18:16;;;;;;;34.80;33.00;;;;;;;;;;5138557;27;20431;-79
2020/12/22 05:20:43;;;;;;;37.00;35.00;;;;;;;;;;5138391;27;20488;-79
2020/12/22 05:23:13;;;;;;;36.67;34.67;;;;;;;;;;5137900;27;20524;-79
2020/12/22 05:25:40;;;;;;;33.40;31.70;;;;;;;;;;5138342;27;20409;-79
2020/12/22 05:28:07;;;;;;;36.30;34.23;;;;;;;;;;5137767;27;20899;-80
2020/12/22 05:30:36;;;;;;;36.53;34.53;;;;;;;;;;5137673;27;21002;-79
2020/12/22 05:33:04;;;;;;;36.27;34.20;;;;;;;;;;5137886;27;20843;-79
2020/12/22 05:35:34;;;;;;;34.50;32.80;;;;;;;;;;5137599;27;20554;-80
2020/12/22 05:38:02;;;;;;;34.30;32.40;;;;;;;;;;5138093;27;20406;-79
2020/12/22 05:40:29;;;;;;;32.40;30.57;;;;;;;;;;5119891;27;20434;-80
2020/12/22 05:42:57;;;;;;;33.80;32.00;;;;;;;;;;5137662;27;20409;-79
2020/12/22 05:45:24;;;;;;;32.17;30.57;;;;;;;;;;5137678;27;20413;-80
2020/12/22 05:47:54;;;;;;;33.40;31.70;;;;;;;;;;5137520;27;20707;-79
2020/12/22 05:50:23;;;;;;;32.97;31.20;;;;;;;;;;5137404;27;20670;-80
2020/12/22 05:52:52;;;;;;;30.23;28.63;;;;;;;;;;5137372;27;20470;-79
2020/12/22 05:55:25;;;;;;;31.90;29.60;;;;;;;;;;5137595;27;20529;-79
2020/12/22 05:58:06;;;;;;;33.50;31.70;;;;;;;;;;5137364;27;20410;-79
2020/12/22 06:00:33;;;;;;;29.23;27.83;;;;;;;;;;5137382;27;20435;-80
2020/12/22 06:03:03;;;;;;;32.97;31.17;;;;;;;;;;5137273;27;20441;-79
2020/12/22 06:05:32;;;;;;;34.37;32.37;;;;;;;;;;5137437;27;20486;-80
2020/12/22 06:07:59;;;;;;;34.83;33.03;;;;;;;;;;5136622;27;20518;-79
2020/12/22 06:10:26;;;;;;;35.63;33.83;;;;;;;;;;5137479;27;20615;-79
2020/12/22 06:12:58;;;;;;;37.53;35.43;;;;;;;;;;5136578;27;20417;-79
2020/12/22 06:15:25;;;;;;;37.83;35.73;;;;;;;;;;5137317;27;20484;-79
2020/12/22 06:17:52;;;;;;;37.30;35.30;;;;;;;;;;5136656;27;20932;-79
2020/12/22 06:20:22;;;;;;;39.10;37.03;;;;;;;;;;5136801;27;20439;-78
2020/12/22 06:22:49;;;;;;;35.70;33.50;;;;;;;;;;5118747;27;20432;-79
2020/12/22 06:25:19;;;;;;;36.93;34.93;;;;;;;;;;5137288;27;20467;-79
2020/12/22 06:27:45;;;;;;;38.00;36.00;;;;;;;;;;5136690;27;20974;-79
2020/12/22 06:30:14;;;;;;;36.93;34.90;;;;;;;;;;5136676;27;20920;-79
2020/12/22 06:32:40;;;;;;;33.83;32.03;;;;;;;;;;5136645;27;20420;-79
2020/12/22 06:35:29;;;;;;;35.00;33.13;;;;;;;;;;5136956;27;20417;-79
2020/12/22 06:37:56;;;;;;;32.57;30.90;;;;;;;;;;5136796;27;20482;-79
2020/12/22 06:40:38;;;;;;;35.07;33.17;;;;;;;;;;5136668;27;20465;-79
2020/12/22 06:43:05;;;;;;;37.80;35.87;;;;;;;;;;5135618;27;20794;-79
2020/12/22 06:45:36;;;;;;;41.20;38.97;;;;;;;;;;5136378;27;20879;-79
2020/12/22 06:48:03;;;;;;;39.73;37.50;;;;;;;;;;5118623;27;20420;-79
2020/12/22 06:50:38;;;;;;;38.43;36.53;;;;;;;;;;5136092;27;20531;-79
2020/12/22 06:53:05;;;;;;;39.07;37.07;;;;;;;;;;5136537;27;20409;-79
2020/12/22 06:55:48;;;;;;;36.50;34.70;;;;;;;;;;5118165;27;20417;-79
2020/12/22 06:58:30;;;;;;;34.23;32.43;;;;;;;;;;5118026;27;20527;-79
2020/12/22 07:00:57;;;;;;;39.20;37.20;;;;;;;;;;5135097;27;20433;-79
2020/12/22 07:03:24;;;;;;;35.73;33.83;;;;;;;;;;5135558;27;20429;-79
2020/12/22 07:05:52;;;;;;;33.37;31.57;;;;;;;;;;5136254;27;20900;-80
2020/12/22 07:08:19;;;;;;;36.87;34.90;;;;;;;;;;5136194;27;20526;-79
2020/12/22 07:10:46;;;;;;;34.23;32.47;;;;;;;;;;5135823;27;20958;-80
2020/12/22 07:13:13;;;;;;;35.17;33.37;;;;;;;;;;5136028;27;20462;-80
2020/12/22 07:15:44;;;;;;;34.80;33.00;;;;;;;;;;5136222;27;20414;-79
2020/12/22 07:18:11;;;;;;;34.67;32.83;;;;;;;;;;5136007;27;20417;-81
2020/12/22 07:20:40;;;;;;;33.07;31.37;;;;;;;;;;5135035;27;20774;-80
2020/12/22 07:23:08;;;;;;;33.13;31.50;;;;;;;;;;5136892;27;20825;-79
2020/12/22 07:25:36;;;;;;;35.23;33.43;;;;;;;;;;5117484;27;20425;-79
2020/12/22 07:28:03;;;;;;;33.57;31.97;;;;;;;;;;5135909;27;20468;-79
2020/12/22 07:30:30;;;;;;;38.47;36.47;;;;;;;;;;5135023;27;20965;-80
2020/12/22 07:32:59;;;;;;;38.37;35.70;;;;;;;;;;5135254;27;20508;-79
2020/12/22 07:35:26;;;;;;;36.47;34.63;;;;;;;;;;5117507;27;20478;-79
2020/12/22 07:37:53;;;;;;;33.50;31.90;;;;;;;;;;5135322;27;20413;-81
2020/12/22 07:40:20;;;;;;;36.10;34.17;;;;;;;;;;5135660;27;21032;-80
2020/12/22 07:42:47;;;;;;;37.57;35.37;;;;;;;;;;5135517;27;20425;-80
2020/12/22 07:45:14;;;;;;;39.23;37.23;;;;;;;;;;5135193;27;20410;-80
2020/12/22 07:47:41;;;;;;;37.13;35.10;;;;;;;;;;5135362;27;20401;-80
2020/12/22 07:50:14;;;;;;;35.93;34.10;;;;;;;;;;5117310;27;20432;-80
2020/12/22 07:52:41;;;;;;;36.50;34.57;;;;;;;;;;5135090;27;20439;-80
2020/12/22 07:55:08;;;;;;;36.13;34.23;;;;;;;;;;5135095;27;20417;-80
2020/12/22 07:57:40;;;;;;;37.23;35.17;;;;;;;;;;5135137;27;20416;-80
2020/12/22 08:00:07;;;;;;;37.37;35.33;;;;;;;;;;5135404;27;20435;-80
2020/12/22 08:02:35;;;;;;;36.20;34.30;;;;;;;;;;5135066;27;20435;-80
2020/12/22 08:05:09;;;;;;;37.90;35.90;;;;;;;;;;5135267;27;20442;-84
2020/12/22 08:07:36;;;;;;;38.83;36.60;;;;;;;;;;5135418;27;21014;-82
2020/12/22 08:10:12;;;;;;;37.20;34.80;;;;;;;;;;5135398;27;20445;-82
2020/12/22 08:12:40;;;;;;;40.97;38.33;;;;;;;;;;5116838;27;20426;-83
2020/12/22 08:15:08;;;;;;;38.07;35.83;;;;;;;;;;5117336;27;20439;-83
2020/12/22 08:17:35;;;;;;;39.87;37.57;;;;;;;;;;5135379;27;20409;-82
2020/12/22 08:20:03;;;;;;;34.90;32.90;;;;;;;;;;5135511;27;20439;-82
2020/12/22 08:22:31;;;;;;;31.90;30.20;;;;;;;;;;5117297;27;20439;-81
2020/12/22 08:24:58;;;;;;;35.33;33.43;;;;;;;;;;5117289;28;20414;-81
2020/12/22 08:27:25;;;;;;;34.60;32.70;;;;;;;;;;5135920;28;20847;-80
2020/12/22 08:29:52;;;;;;;33.93;31.83;;;;;;;;;;5134774;28;20430;-80
2020/12/22 08:32:24;;;;;;;33.67;31.90;;;;;;;;;;5137604;27;20477;-80
2020/12/22 08:34:52;;;;;;;40.43;37.70;;;;;;;;;;5139268;27;20508;-83
2020/12/22 08:37:19;;;;;;;41.00;38.60;;;;;;;;;;5139949;27;20536;-82
2020/12/22 08:39:46;;;;;;;41.20;38.90;;;;;;;;;;5139291;27;20443;-79
2020/12/22 08:42:13;;;;;;;45.53;42.67;;;;;;;;;;5120991;27;20422;-83
2020/12/22 08:44:48;;;;;;;42.80;40.30;;;;;;;;;;5139101;27;20451;-83
2020/12/22 08:47:16;;;;;;;46.13;43.03;;;;;;;;;;5139116;27;20423;-80
2020/12/22 08:49:43;;;;;;;45.73;42.93;;;;;;;;;;5139494;27;20459;-83
2020/12/22 08:52:10;;;;;;;44.83;42.00;;;;;;;;;;5120991;27;21023;-82
2020/12/22 08:54:37;;;;;;;46.23;43.50;;;;;;;;;;5139035;27;20879;-82
2020/12/22 08:57:08;;;;;;;47.93;45.10;;;;;;;;;;5139016;27;20413;-81
2020/12/22 08:59:35;;;;;;;44.90;42.20;;;;;;;;;;5138988;27;20435;-80
2020/12/22 09:02:02;;;;;;;45.90;43.20;;;;;;;;;;5138533;27;20465;-80
2020/12/22 09:04:31;;;;;;;42.07;39.43;;;;;;;;;;5138788;27;20406;-86
2020/12/22 09:06:58;;;;;;;41.10;38.60;;;;;;;;;;5138698;27;20419;-80
2020/12/22 09:09:28;;;;;;;41.50;39.20;;;;;;;;;;5138599;27;20816;-78
2020/12/22 09:12:03;;;;;;;38.30;36.10;;;;;;;;;;5136973;27;20862;-79
2020/12/22 09:14:38;;;;;;;38.53;36.43;;;;;;;;;;5138110;27;20470;-80
2020/12/22 09:17:05;;;;;;;37.53;35.33;;;;;;;;;;5137196;27;20470;-77
2020/12/22 09:19:42;;;;;;;36.90;34.80;;;;;;;;;;5137931;27;20405;-78
2020/12/22 09:22:09;;;;;;;37.80;35.50;;;;;;;;;;5138152;27;20431;-82
2020/12/22 09:24:36;;;;;;;37.50;35.33;;;;;;;;;;5138823;27;20416;-78
2020/12/22 09:27:05;;;;;;;37.13;35.13;;;;;;;;;;5137687;27;20428;-82
2020/12/22 09:29:32;;;;;;;39.50;36.83;;;;;;;;;;5138292;27;20432;-81
2020/12/22 09:32:01;;;;;;;34.77;32.83;;;;;;;;;;5137625;27;20486;-79
2020/12/22 09:34:29;;;;;;;34.80;32.87;;;;;;;;;;5138341;27;20469;-81
2020/12/22 09:36:58;;;;;;;37.60;35.30;;;;;;;;;;5137776;27;20414;-81
2020/12/22 09:39:25;;;;;;;36.33;34.03;;;;;;;;;;5138484;27;20410;-88
2020/12/22 09:41:52;;;;;;;33.43;31.73;;;;;;;;;;5138441;27;20904;-88
2020/12/22 09:44:19;;;;;;;37.60;35.53;;;;;;;;;;5137239;27;20435;-88
2020/12/22 09:46:47;;;;;;;33.37;31.57;;;;;;;;;;5138546;27;20406;-87
2020/12/22 09:49:14;;;;;;;36.23;34.30;;;;;;;;;;5120150;27;20443;-88
2020/12/22 09:51:41;;;;;;;38.57;36.13;;;;;;;;;;5137849;27;20454;-83
2020/12/22 09:54:09;;;;;;;38.90;36.60;;;;;;;;;;5135805;27;20977;-78
2020/12/22 09:56:36;;;;;;;39.23;37.30;;;;;;;;;;5137646;27;20518;-82
2020/12/22 09:59:03;;;;;;;36.50;34.50;;;;;;;;;;5137673;27;20410;-81
2020/12/22 10:01:30;;;;;;;39.40;37.33;;;;;;;;;;5119485;27;20421;-81
2020/12/22 10:03:57;;;;;;;37.30;35.30;;;;;;;;;;5118753;27;20456;-81
2020/12/22 10:06:24;;;;;;;35.50;33.50;;;;;;;;;;5137519;27;20475;-82
2020/12/22 10:08:51;;;;;;;37.03;35.13;;;;;;;;;;5137892;27;20472;-81
2020/12/22 10:11:20;;;;;;;36.57;34.10;;;;;;;;;;5138127;27;20478;-86
2020/12/22 10:13:47;;;;;;;36.70;34.77;;;;;;;;;;5137678;27;20464;-82
2020/12/22 10:16:15;;;;;;;34.57;32.87;;;;;;;;;;5138105;27;20434;-86
2020/12/22 10:18:42;;;;;;;32.43;30.90;;;;;;;;;;5137900;27;20414;-88
2020/12/22 10:21:10;;;;;;;33.03;31.33;;;;;;;;;;5137936;27;20423;-79
2020/12/22 10:23:38;;;;;;;32.30;30.80;;;;;;;;;;5137699;27;20421;-84
2020/12/22 10:26:05;;;;;;;31.80;30.30;;;;;;;;;;5137430;27;20405;-83
2020/12/22 10:28:34;;;;;;;31.60;30.10;;;;;;;;;;5119280;27;20756;-80
2020/12/22 10:31:01;;;;;;;28.90;27.50;;;;;;;;;;5136683;27;20469;-84
2020/12/22 10:33:28;;;;;;;26.67;25.47;;;;;;;;;;5118479;27;20398;-85
2020/12/22 10:35:55;;;;;;;27.70;26.30;;;;;;;;;;5128682;27;20414;-80
2020/12/22 10:38:23;;;;;;;26.87;25.57;;;;;;;;;;5114058;27;20418;-83
2020/12/22 10:40:50;;;;;;;26.47;25.17;;;;;;;;;;5124091;27;20500;-77
2020/12/22 10:43:17;;;;;;;27.33;25.93;;;;;;;;;;5124131;27;20424;-78
2020/12/22 10:45:44;;;;;;;24.70;23.23;;;;;;;;;;5125190;27;20778;-81
2020/12/22 10:48:11;;;;;;;24.73;23.30;;;;;;;;;;5121754;27;20406;-83
2020/12/22 10:50:39;;;;;;;25.17;23.70;;;;;;;;;;5116327;28;20955;-82
2020/12/22 10:53:06;;;;;;;23.93;22.73;;;;;;;;;;5116163;28;20407;-82
2020/12/22 10:55:33;;;;;;;22.33;21.00;;;;;;;;;;5115696;28;20410;-82
2020/12/22 10:58:00;;;;;;;23.60;22.30;;;;;;;;;;5116561;28;20503;-82
2020/12/22 11:00:27;;;;;;;22.30;21.00;;;;;;;;;;5116183;28;20477;-83
2020/12/22 11:02:58;;;;;;;22.40;21.23;;;;;;;;;;5116305;28;20414;-81
2020/12/22 11:08:06;;;;;;;21.73;20.43;;;;;;;;;;5081975;28;20945;-81
2020/12/22 11:10:36;;;;;;;22.43;20.53;;;;;;;;;;5097660;28;20413;-80
2020/12/22 11:13:03;;;;;;;21.83;20.73;;;;;;;;;;5115356;28;20511;-82
2020/12/22 11:15:30;;;;;;;21.40;20.30;;;;;;;;;;5115311;28;20771;-80
2020/12/22 11:17:58;;;;;;;21.63;20.50;;;;;;;;;;5115186;28;20439;-79
2020/12/22 11:20:24;;;;;;;22.47;21.07;;;;;;;;;;5115172;28;20448;-80
2020/12/22 11:22:51;;;;;;;22.90;21.57;;;;;;;;;;5115011;28;20426;-79
2020/12/22 11:25:18;;;;;;;25.67;24.10;;;;;;;;;;5115307;28;20403;-79
2020/12/22 11:27:46;;;;;;;24.13;22.80;;;;;;;;;;5115022;28;20754;-79
2020/12/22 11:30:12;;;;;;;23.03;21.67;;;;;;;;;;5114959;28;20861;-78
2020/12/22 11:32:40;;;;;;;23.80;22.33;;;;;;;;;;5114796;28;20455;-79
2020/12/22 11:35:08;;;;;;;21.97;20.87;;;;;;;;;;5114905;28;20414;-86
2020/12/22 11:37:35;;;;;;;23.27;21.90;;;;;;;;;;5097486;28;20501;-85
2020/12/22 11:40:02;;;;;;;22.87;21.77;;;;;;;;;;5115362;28;20805;-83
2020/12/22 11:42:29;;;;;;;23.23;21.83;;;;;;;;;;5115862;28;20435;-82
2020/12/22 11:44:55;;;;;;;25.23;23.83;;;;;;;;;;5097458;28;20493;-80
2020/12/22 11:47:22;;;;;;;23.20;22.00;;;;;;;;;;5115372;28;20793;-82
2020/12/22 11:49:49;;;;;;;27.60;26.10;;;;;;;;;;5115474;28;20445;-83
2020/12/22 11:52:18;;;;;;;26.63;24.93;;;;;;;;;;5115292;28;20483;-81
2020/12/22 11:54:45;;;;;;;23.80;22.60;;;;;;;;;;5115629;28;20420;-87
2020/12/22 11:57:12;;;;;;;23.67;22.47;;;;;;;;;;5115222;28;20420;-82
2020/12/22 11:59:38;;;;;;;23.27;22.07;;;;;;;;;;5115110;28;20442;-82
2020/12/22 12:02:06;;;;;;;24.37;22.93;;;;;;;;;;5115005;28;20503;-82
2020/12/22 12:04:32;;;;;;;22.20;21.10;;;;;;;;;;5115158;28;20432;-81
2020/12/22 12:07:00;;;;;;;23.27;21.97;;;;;;;;;;5113879;28;20443;-83
2020/12/22 12:09:28;;;;;;;23.37;21.70;;;;;;;;;;5115142;28;20432;-82
2020/12/22 12:11:55;;;;;;;23.83;22.57;;;;;;;;;;5114474;28;20491;-82
2020/12/22 12:14:22;;;;;;;25.77;24.00;;;;;;;;;;5114617;28;20471;-82
2020/12/22 12:16:49;;;;;;;22.43;21.20;;;;;;;;;;5096583;28;20521;-82
2020/12/22 12:19:16;;;;;;;23.80;22.50;;;;;;;;;;5096933;28;20469;-82
2020/12/22 12:21:43;;;;;;;24.67;23.17;;;;;;;;;;5114664;28;20436;-82
2020/12/22 12:24:10;;;;;;;24.47;23.17;;;;;;;;;;5114951;28;20454;-82
2020/12/22 12:26:38;;;;;;;23.93;22.73;;;;;;;;;;5097815;28;20444;-82
2020/12/22 12:29:06;;;;;;;23.40;22.20;;;;;;;;;;5114664;28;20485;-83
2020/12/22 12:31:33;;;;;;;24.17;22.50;;;;;;;;;;5114039;28;20483;-83
2020/12/22 12:34:00;;;;;;;23.40;22.00;;;;;;;;;;5114364;28;20428;-82
2020/12/22 12:36:27;;;;;;;21.93;20.83;;;;;;;;;;5114333;28;20459;-82
2020/12/22 12:38:54;;;;;;;22.23;20.93;;;;;;;;;;5114717;28;20439;-83
2020/12/22 12:41:21;;;;;;;21.90;20.70;;;;;;;;;;5114584;28;20439;-82
2020/12/22 12:43:48;;;;;;;22.43;21.13;;;;;;;;;;5114532;28;20424;-79
2020/12/22 12:46:16;;;;;;;22.33;20.93;;;;;;;;;;5114412;28;20489;-80
2020/12/22 12:48:43;;;;;;;23.47;22.20;;;;;;;;;;5114264;28;20432;-80
2020/12/22 12:51:11;;;;;;;24.20;22.70;;;;;;;;;;5114388;28;20467;-81
2020/12/22 12:53:39;;;;;;;31.17;29.07;;;;;;;;;;5114798;28;20481;-82
2020/12/22 12:56:06;;;;;;;31.93;29.60;;;;;;;;;;5115173;28;20543;-85
2020/12/22 12:58:33;;;;;;;29.03;27.00;;;;;;;;;;5115546;28;20465;-88
2020/12/22 13:01:01;;;;;;;33.33;30.73;;;;;;;;;;5114436;28;20914;-87
2020/12/22 13:03:28;;;;;;;22.70;21.40;;;;;;;;;;5114728;28;20768;-87
2020/12/22 13:05:55;;;;;;;116.63;84.87;;;;;;;;;;5114569;28;20434;-88
2020/12/22 13:08:22;;;;;;;32.07;29.67;;;;;;;;;;5115011;28;20413;-90
2020/12/22 13:10:49;;;;;;;39.67;36.10;;;;;;;;;;5114354;28;20444;-90
2020/12/22 13:13:16;;;;;;;26.17;24.37;;;;;;;;;;5114532;28;20822;-91
2020/12/22 13:15:43;;;;;;;81.60;67.43;;;;;;;;;;5114555;28;20909;-90
2020/12/22 13:18:10;;;;;;;33.07;30.63;;;;;;;;;;5115524;28;20432;-90
2020/12/22 13:20:37;;;;;;;25.57;24.07;;;;;;;;;;5118501;28;20435;-90
2020/12/22 13:23:06;;;;;;;22.90;21.70;;;;;;;;;;5117708;28;20439;-90
2020/12/22 13:25:33;;;;;;;24.37;22.70;;;;;;;;;;5118606;28;20447;-90
2020/12/22 13:28:00;;;;;;;22.63;21.53;;;;;;;;;;5100700;28;20439;-89
2020/12/22 13:30:27;;;;;;;22.50;21.30;;;;;;;;;;5118277;28;20470;-89
2020/12/22 13:32:54;;;;;;;21.80;20.50;;;;;;;;;;5118226;28;20512;-89
2020/12/22 13:35:21;;;;;;;21.93;20.73;;;;;;;;;;5117898;28;20894;-89
2020/12/22 13:37:48;;;;;;;21.37;20.27;;;;;;;;;;5100202;28;20415;-88
2020/12/22 13:40:15;;;;;;;21.63;20.53;;;;;;;;;;5117849;28;20428;-89
2020/12/22 13:42:42;;;;;;;20.60;19.50;;;;;;;;;;5117783;28;20451;-91
2020/12/22 13:45:09;;;;;;;22.40;21.30;;;;;;;;;;5118141;28;20417;-91
2020/12/22 13:47:36;;;;;;;21.50;20.40;;;;;;;;;;5118028;28;20439;-90
2020/12/22 13:50:02;;;;;;;20.90;19.60;;;;;;;;;;5118077;28;20443;-91
2020/12/22 13:52:30;;;;;;;20.47;19.57;;;;;;;;;;5117668;28;20502;-91
2020/12/22 13:54:57;;;;;;;34.53;31.90;;;;;;;;;;5117652;28;20436;-89
2020/12/22 13:57:24;;;;;;;23.27;21.70;;;;;;;;;;5118254;28;20471;-91
2020/12/22 13:59:51;;;;;;;21.27;19.97;;;;;;;;;;5117477;28;20440;-90
2020/12/22 14:02:18;;;;;;;33.33;30.60;;;;;;;;;;5117466;28;20431;-90
2020/12/22 14:04:44;;;;;;;24.20;22.67;;;;;;;;;;5117674;28;20459;-89
2020/12/22 14:07:11;;;;;;;35.10;31.93;;;;;;;;;;5117552;28;20795;-90
2020/12/22 14:09:39;;;;;;;30.63;28.23;;;;;;;;;;5117792;28;20438;-91
2020/12/22 14:12:07;;;;;;;26.03;24.23;;;;;;;;;;5117262;28;20528;-93
2020/12/22 14:14:34;;;;;;;23.43;21.97;;;;;;;;;;5116988;28;20475;-89
2020/12/22 14:17:01;;;;;;;21.77;20.60;;;;;;;;;;5117070;28;20482;-93
2020/12/22 14:19:28;;;;;;;21.80;20.40;;;;;;;;;;5117509;28;20439;-89
2020/12/22 14:21:55;;;;;;;34.83;32.23;;;;;;;;;;5098869;28;20455;-90